sensor_id;sensor_type;location;lat;lon;timestamp;pressure;altitude;pressure_sealevel;temperature;humidity
22283;BME280;11310;51.528;21.204;2023-12-20T00:00:17;99294.91;;;6.84;100.00
22283;BME280;11310;51.528;21.204;2023-12-20T00:02:46;99296.81;;;6.81;100.00
22283;BME280;11310;51.528;21.204;2023-12-20T00:05:15;99300.97;;;6.85;100.00
22283;BME280;11310;51.528;21.204;2023-12-20T00:07:44;99296.88;;;6.79;100.00
22283;BME280;11310;51.528;21.204;2023-12-20T00:10:13;99293.56;;;6.76;100.00
22283;BME280;11310;51.528;21.204;2023-12-20T00:12:42;99287.53;;;6.74;100.00
22283;BME280;11310;51.528;21.204;2023-12-20T00:15:11;99283.31;;;6.71;100.00
22283;BME280;11310;51.528;21.204;2023-12-20T00:17:41;99285.84;;;6.73;100.00
22283;BME280;11310;51.528;21.204;2023-12-20T00:20:11;99279.59;;;6.77;100.00
22283;BME280;11310;51.528;21.204;2023-12-20T00:22:39;99275.31;;;6.76;100.00
22283;BME280;11310;51.528;21.204;2023-12-20T00:25:10;99270.09;;;6.76;100.00
22283;BME280;11310;51.528;21.204;2023-12-20T00:27:38;99269.94;;;6.79;100.00
22283;BME280;11310;51.528;21.204;2023-12-20T00:30:08;99271.66;;;6.80;100.00
22283;BME280;11310;51.528;21.204;2023-12-20T00:32:38;99262.13;;;6.79;100.00
22283;BME280;11310;51.528;21.204;2023-12-20T00:35:09;99263.03;;;6.78;100.00
22283;BME280;11310;51.528;21.204;2023-12-20T00:37:37;99263.03;;;6.78;100.00
22283;BME280;11310;51.528;21.204;2023-12-20T00:40:07;99265.66;;;6.78;100.00
22283;BME280;11310;51.528;21.204;2023-12-20T00:42:38;99257.81;;;6.78;100.00
22283;BME280;11310;51.528;21.204;2023-12-20T00:45:06;99252.56;;;6.79;100.00
22283;BME280;11310;51.528;21.204;2023-12-20T00:47:35;99251.56;;;6.82;100.00
22283;BME280;11310;51.528;21.204;2023-12-20T00:50:04;99240.88;;;6.88;100.00
22283;BME280;11310;51.528;21.204;2023-12-20T00:52:32;99243.34;;;6.91;100.00
22283;BME280;11310;51.528;21.204;2023-12-20T00:55:00;99245.25;;;6.87;100.00
22283;BME280;11310;51.528;21.204;2023-12-20T00:57:29;99244.56;;;6.84;100.00
22283;BME280;11310;51.528;21.204;2023-12-20T00:59:59;99248.69;;;6.88;100.00
22283;BME280;11310;51.528;21.204;2023-12-20T01:02:28;99240.09;;;6.86;100.00
22283;BME280;11310;51.528;21.204;2023-12-20T01:04:56;99238.25;;;6.88;100.00
22283;BME280;11310;51.528;21.204;2023-12-20T01:07:24;99233.06;;;6.88;100.00
22283;BME280;11310;51.528;21.204;2023-12-20T01:09:52;99233.06;;;6.88;100.00
22283;BME280;11310;51.528;21.204;2023-12-20T01:12:24;99236.47;;;6.90;100.00
22283;BME280;11310;51.528;21.204;2023-12-20T01:14:53;99242.59;;;6.89;100.00
22283;BME280;11310;51.528;21.204;2023-12-20T01:17:22;99235.25;;;6.97;100.00
22283;BME280;11310;51.528;21.204;2023-12-20T01:19:52;99236.81;;;7.01;100.00
22283;BME280;11310;51.528;21.204;2023-12-20T01:22:21;99234.84;;;7.06;100.00
22283;BME280;11310;51.528;21.204;2023-12-20T01:24:49;99230.84;;;7.17;100.00
22283;BME280;11310;51.528;21.204;2023-12-20T01:27:18;99220.63;;;7.31;100.00
22283;BME280;11310;51.528;21.204;2023-12-20T01:29:46;99220.72;;;7.48;100.00
22283;BME280;11310;51.528;21.204;2023-12-20T01:32:15;99206.03;;;7.46;100.00
22283;BME280;11310;51.528;21.204;2023-12-20T01:34:44;99206.88;;;7.65;100.00
22283;BME280;11310;51.528;21.204;2023-12-20T01:37:13;99188.84;;;7.77;100.00
22283;BME280;11310;51.528;21.204;2023-12-20T01:39:42;99190.94;;;7.71;100.00
22283;BME280;11310;51.528;21.204;2023-12-20T01:42:10;99190.34;;;7.83;100.00
22283;BME280;11310;51.528;21.204;2023-12-20T01:44:38;99188.28;;;7.54;100.00
22283;BME280;11310;51.528;21.204;2023-12-20T01:47:07;99183.72;;;7.76;100.00
22283;BME280;11310;51.528;21.204;2023-12-20T01:49:36;99183.00;;;7.72;100.00
22283;BME280;11310;51.528;21.204;2023-12-20T01:52:07;99182.38;;;7.67;100.00
22283;BME280;11310;51.528;21.204;2023-12-20T01:54:40;99176.78;;;7.75;100.00
22283;BME280;11310;51.528;21.204;2023-12-20T01:57:10;99176.78;;;7.75;100.00
22283;BME280;11310;51.528;21.204;2023-12-20T01:59:39;99175.09;;;7.74;100.00
22283;BME280;11310;51.528;21.204;2023-12-20T02:02:08;99185.38;;;7.60;100.00
22283;BME280;11310;51.528;21.204;2023-12-20T02:04:39;99183.63;;;7.42;100.00
22283;BME280;11310;51.528;21.204;2023-12-20T02:07:11;99168.25;;;7.36;100.00
22283;BME280;11310;51.528;21.204;2023-12-20T02:09:40;99156.16;;;7.35;100.00
22283;BME280;11310;51.528;21.204;2023-12-20T02:12:09;99154.31;;;7.18;100.00
22283;BME280;11310;51.528;21.204;2023-12-20T02:14:37;99128.63;;;7.28;100.00
22283;BME280;11310;51.528;21.204;2023-12-20T02:17:05;99129.25;;;7.33;100.00
22283;BME280;11310;51.528;21.204;2023-12-20T02:19:33;99135.09;;;7.38;100.00
22283;BME280;11310;51.528;21.204;2023-12-20T02:22:08;99132.44;;;7.39;100.00
22283;BME280;11310;51.528;21.204;2023-12-20T02:24:36;99124.84;;;7.35;100.00
22283;BME280;11310;51.528;21.204;2023-12-20T02:27:07;99121.88;;;7.42;100.00
22283;BME280;11310;51.528;21.204;2023-12-20T02:29:36;99119.31;;;7.41;100.00
22283;BME280;11310;51.528;21.204;2023-12-20T02:32:05;99117.63;;;7.40;100.00
22283;BME280;11310;51.528;21.204;2023-12-20T02:34:33;99122.69;;;7.43;100.00
22283;BME280;11310;51.528;21.204;2023-12-20T02:37:01;99132.31;;;7.42;100.00
22283;BME280;11310;51.528;21.204;2023-12-20T02:39:31;99126.09;;;7.45;100.00
22283;BME280;11310;51.528;21.204;2023-12-20T02:42:00;99140.94;;;7.43;100.00
22283;BME280;11310;51.528;21.204;2023-12-20T02:44:28;99135.91;;;7.40;100.00
22283;BME280;11310;51.528;21.204;2023-12-20T02:46:57;99127.00;;;7.44;100.00
22283;BME280;11310;51.528;21.204;2023-12-20T02:49:25;99121.69;;;7.45;100.00
22283;BME280;11310;51.528;21.204;2023-12-20T02:51:54;99121.63;;;7.47;100.00
22283;BME280;11310;51.528;21.204;2023-12-20T02:54:22;99110.63;;;7.40;100.00
22283;BME280;11310;51.528;21.204;2023-12-20T02:56:52;99119.75;;;7.32;100.00
22283;BME280;11310;51.528;21.204;2023-12-20T02:59:20;99110.19;;;7.32;100.00
22283;BME280;11310;51.528;21.204;2023-12-20T03:01:48;99105.53;;;7.39;100.00
22283;BME280;11310;51.528;21.204;2023-12-20T03:04:19;99115.59;;;7.46;100.00
22283;BME280;11310;51.528;21.204;2023-12-20T03:06:48;99109.56;;;7.44;100.00
22283;BME280;11310;51.528;21.204;2023-12-20T03:09:18;99102.13;;;7.37;100.00
22283;BME280;11310;51.528;21.204;2023-12-20T03:11:46;99098.13;;;7.30;100.00
22283;BME280;11310;51.528;21.204;2023-12-20T03:14:16;99097.91;;;7.34;100.00
22283;BME280;11310;51.528;21.204;2023-12-20T03:16:47;99106.13;;;7.44;100.00
22283;BME280;11310;51.528;21.204;2023-12-20T03:19:15;99107.91;;;7.43;100.00
22283;BME280;11310;51.528;21.204;2023-12-20T03:21:44;99106.97;;;7.44;100.00
22283;BME280;11310;51.528;21.204;2023-12-20T03:24:12;99116.47;;;7.45;100.00
22283;BME280;11310;51.528;21.204;2023-12-20T03:26:40;99113.34;;;7.39;100.00
22283;BME280;11310;51.528;21.204;2023-12-20T03:29:09;99112.13;;;7.46;100.00
22283;BME280;11310;51.528;21.204;2023-12-20T03:31:38;99111.19;;;7.47;100.00
22283;BME280;11310;51.528;21.204;2023-12-20T03:34:06;99114.66;;;7.47;100.00
22283;BME280;11310;51.528;21.204;2023-12-20T03:36:35;99107.31;;;7.55;100.00
22283;BME280;11310;51.528;21.204;2023-12-20T03:39:03;99109.69;;;7.60;100.00
22283;BME280;11310;51.528;21.204;2023-12-20T03:41:32;99108.81;;;7.42;100.00
22283;BME280;11310;51.528;21.204;2023-12-20T03:44:00;99102.22;;;7.52;100.00
22283;BME280;11310;51.528;21.204;2023-12-20T03:46:28;99115.41;;;7.49;100.00
22283;BME280;11310;51.528;21.204;2023-12-20T03:49:00;99109.81;;;7.57;100.00
22283;BME280;11310;51.528;21.204;2023-12-20T03:51:30;99109.53;;;7.63;100.00
22283;BME280;11310;51.528;21.204;2023-12-20T03:53:59;99107.69;;;7.65;100.00
22283;BME280;11310;51.528;21.204;2023-12-20T03:56:28;99107.69;;;7.65;100.00
22283;BME280;11310;51.528;21.204;2023-12-20T03:58:57;99100.09;;;7.60;100.00
22283;BME280;11310;51.528;21.204;2023-12-20T04:01:25;99112.16;;;7.63;100.00
22283;BME280;11310;51.528;21.204;2023-12-20T04:03:54;99098.63;;;7.55;100.00
22283;BME280;11310;51.528;21.204;2023-12-20T04:06:24;99104.47;;;7.60;100.00
22283;BME280;11310;51.528;21.204;2023-12-20T04:08:52;99107.16;;;7.58;100.00
22283;BME280;11310;51.528;21.204;2023-12-20T04:11:21;99108.75;;;7.61;100.00
22283;BME280;11310;51.528;21.204;2023-12-20T04:13:48;99106.00;;;7.64;100.00
22283;BME280;11310;51.528;21.204;2023-12-20T04:16:16;99110.16;;;7.68;100.00
22283;BME280;11310;51.528;21.204;2023-12-20T04:18:45;99111.72;;;7.72;100.00
22283;BME280;11310;51.528;21.204;2023-12-20T04:21:13;99103.09;;;7.70;100.00
22283;BME280;11310;51.528;21.204;2023-12-20T04:23:42;99111.72;;;7.72;100.00
22283;BME280;11310;51.528;21.204;2023-12-20T04:26:11;99114.25;;;7.73;100.00
22283;BME280;11310;51.528;21.204;2023-12-20T04:28:39;99109.09;;;7.72;100.00
22283;BME280;11310;51.528;21.204;2023-12-20T04:31:08;99104.69;;;7.72;100.00
22283;BME280;11310;51.528;21.204;2023-12-20T04:33:36;99095.97;;;7.73;100.00
22283;BME280;11310;51.528;21.204;2023-12-20T04:36:05;99088.03;;;7.75;100.00
22283;BME280;11310;51.528;21.204;2023-12-20T04:38:33;99094.19;;;7.74;100.00
22283;BME280;11310;51.528;21.204;2023-12-20T04:41:03;99089.13;;;7.88;100.00
22283;BME280;11310;51.528;21.204;2023-12-20T04:43:32;99086.22;;;7.94;100.00
22283;BME280;11310;51.528;21.204;2023-12-20T04:46:00;99092.34;;;7.93;100.00
22283;BME280;11310;51.528;21.204;2023-12-20T04:48:29;99092.13;;;7.80;100.00
22283;BME280;11310;51.528;21.204;2023-12-20T04:50:57;99098.72;;;7.70;100.00
22283;BME280;11310;51.528;21.204;2023-12-20T04:53:25;99089.22;;;7.69;100.00
22283;BME280;11310;51.528;21.204;2023-12-20T04:55:54;99087.22;;;7.74;100.00
22283;BME280;11310;51.528;21.204;2023-12-20T04:58:24;99089.59;;;7.79;100.00
22283;BME280;11310;51.528;21.204;2023-12-20T05:00:52;99081.31;;;7.71;100.00
22283;BME280;11310;51.528;21.204;2023-12-20T05:03:21;99086.97;;;7.79;100.00
22283;BME280;11310;51.528;21.204;2023-12-20T05:05:49;99088.03;;;7.75;100.00
22283;BME280;11310;51.528;21.204;2023-12-20T05:08:17;99083.00;;;7.72;100.00
22283;BME280;11310;51.528;21.204;2023-12-20T05:10:46;99088.66;;;7.63;100.00
22283;BME280;11310;51.528;21.204;2023-12-20T05:13:14;99086.34;;;7.57;100.00
22283;BME280;11310;51.528;21.204;2023-12-20T05:15:43;99092.88;;;7.65;100.00
22283;BME280;11310;51.528;21.204;2023-12-20T05:18:13;99089.22;;;7.34;100.00
22283;BME280;11310;51.528;21.204;2023-12-20T05:20:41;99092.00;;;7.31;100.00
22283;BME280;11310;51.528;21.204;2023-12-20T05:23:10;99090.84;;;7.36;100.00
22283;BME280;11310;51.528;21.204;2023-12-20T05:25:39;99080.31;;;7.38;100.00
22283;BME280;11310;51.528;21.204;2023-12-20T05:28:07;99092.25;;;7.43;100.00
22283;BME280;11310;51.528;21.204;2023-12-20T05:30:36;99090.56;;;7.42;100.00
22283;BME280;11310;51.528;21.204;2023-12-20T05:33:06;99090.31;;;7.47;100.00
22283;BME280;11310;51.528;21.204;2023-12-20T05:35:34;99095.41;;;7.50;100.00
22283;BME280;11310;51.528;21.204;2023-12-20T05:38:03;99087.56;;;7.50;100.00
22283;BME280;11310;51.528;21.204;2023-12-20T05:40:31;99090.94;;;7.52;100.00
22283;BME280;11310;51.528;21.204;2023-12-20T05:43:00;99088.06;;;7.58;100.00
22283;BME280;11310;51.528;21.204;2023-12-20T05:45:28;99077.91;;;7.69;100.00
22283;BME280;11310;51.528;21.204;2023-12-20T05:47:56;99083.28;;;7.66;100.00
22283;BME280;11310;51.528;21.204;2023-12-20T05:50:26;99078.47;;;7.75;100.00
22283;BME280;11310;51.528;21.204;2023-12-20T05:52:55;99081.44;;;7.68;100.00
22283;BME280;11310;51.528;21.204;2023-12-20T05:55:24;99078.91;;;7.66;100.00
22283;BME280;11310;51.528;21.204;2023-12-20T05:57:52;99086.53;;;7.71;100.00
22283;BME280;11310;51.528;21.204;2023-12-20T06:00:20;99083.75;;;7.74;100.00
22283;BME280;11310;51.528;21.204;2023-12-20T06:02:49;99077.81;;;7.53;100.00
22283;BME280;11310;51.528;21.204;2023-12-20T06:05:17;99072.84;;;7.66;100.00
22283;BME280;11310;51.528;21.204;2023-12-20T06:07:47;99070.16;;;7.67;100.00
22283;BME280;11310;51.528;21.204;2023-12-20T06:10:18;99065.94;;;7.65;100.00
22283;BME280;11310;51.528;21.204;2023-12-20T06:12:46;99067.78;;;7.63;100.00
22283;BME280;11310;51.528;21.204;2023-12-20T06:15:17;99077.38;;;7.62;100.00
22283;BME280;11310;51.528;21.204;2023-12-20T06:17:45;99076.69;;;7.59;100.00
22283;BME280;11310;51.528;21.204;2023-12-20T06:20:15;99072.59;;;7.53;100.00
22283;BME280;11310;51.528;21.204;2023-12-20T06:22:43;99075.28;;;7.52;100.00
22283;BME280;11310;51.528;21.204;2023-12-20T06:25:13;99072.41;;;7.58;100.00
22283;BME280;11310;51.528;21.204;2023-12-20T06:27:41;99074.06;;;7.59;100.00
22283;BME280;11310;51.528;21.204;2023-12-20T06:30:10;99062.03;;;7.56;100.00
22283;BME280;11310;51.528;21.204;2023-12-20T06:32:39;99070.78;;;7.55;100.00
22283;BME280;11310;51.528;21.204;2023-12-20T06:35:09;99074.84;;;7.61;100.00
22283;BME280;11310;51.528;21.204;2023-12-20T06:37:38;99083.59;;;7.60;100.00
22283;BME280;11310;51.528;21.204;2023-12-20T06:40:12;99072.78;;;7.67;100.00
22283;BME280;11310;51.528;21.204;2023-12-20T06:42:45;99076.69;;;7.59;100.00
22283;BME280;11310;51.528;21.204;2023-12-20T06:45:31;99076.00;;;7.55;100.00
22283;BME280;11310;51.528;21.204;2023-12-20T06:48:00;99071.78;;;7.53;100.00
22283;BME280;11310;51.528;21.204;2023-12-20T06:50:29;99070.69;;;7.57;100.00
22283;BME280;11310;51.528;21.204;2023-12-20T06:52:58;99071.78;;;7.53;100.00
22283;BME280;11310;51.528;21.204;2023-12-20T06:55:28;99077.88;;;7.52;100.00
22283;BME280;11310;51.528;21.204;2023-12-20T06:57:58;99072.78;;;7.50;100.00
22283;BME280;11310;51.528;21.204;2023-12-20T07:00:26;99071.06;;;7.49;100.00
22283;BME280;11310;51.528;21.204;2023-12-20T07:02:56;99065.78;;;7.51;100.00
22283;BME280;11310;51.528;21.204;2023-12-20T07:05:24;99067.69;;;7.47;100.00
22283;BME280;11310;51.528;21.204;2023-12-20T07:07:53;99068.44;;;7.49;100.00
22283;BME280;11310;51.528;21.204;2023-12-20T07:10:22;99067.63;;;7.49;100.00
22283;BME280;11310;51.528;21.204;2023-12-20T07:12:52;99064.41;;;7.44;100.00
22283;BME280;11310;51.528;21.204;2023-12-20T07:15:22;99068.06;;;7.40;100.00
22283;BME280;11310;51.528;21.204;2023-12-20T07:17:51;99069.06;;;7.37;100.00
22283;BME280;11310;51.528;21.204;2023-12-20T07:20:20;99069.00;;;7.39;100.00
22283;BME280;11310;51.528;21.204;2023-12-20T07:22:49;99066.38;;;7.39;100.00
22283;BME280;11310;51.528;21.204;2023-12-20T07:25:17;99066.28;;;7.40;100.00
22283;BME280;11310;51.528;21.204;2023-12-20T07:27:47;99067.16;;;7.41;100.00
22283;BME280;11310;51.528;21.204;2023-12-20T07:30:17;99070.81;;;7.37;100.00
22283;BME280;11310;51.528;21.204;2023-12-20T07:32:46;99069.19;;;7.34;100.00
22283;BME280;11310;51.528;21.204;2023-12-20T07:35:15;99069.56;;;7.27;100.00
22283;BME280;11310;51.528;21.204;2023-12-20T07:37:45;99077.41;;;7.27;100.00
22283;BME280;11310;51.528;21.204;2023-12-20T07:40:14;99080.75;;;7.29;100.00
22283;BME280;11310;51.528;21.204;2023-12-20T07:42:44;99072.31;;;7.24;100.00
22283;BME280;11310;51.528;21.204;2023-12-20T07:45:17;99078.25;;;7.27;100.00
22283;BME280;11310;51.528;21.204;2023-12-20T07:47:46;99078.94;;;7.31;100.00
22283;BME280;11310;51.528;21.204;2023-12-20T07:50:15;99085.78;;;7.33;100.00
22283;BME280;11310;51.528;21.204;2023-12-20T07:52:44;99081.25;;;7.37;100.00
22283;BME280;11310;51.528;21.204;2023-12-20T07:55:14;99070.06;;;7.35;100.00
22283;BME280;11310;51.528;21.204;2023-12-20T07:57:46;99083.69;;;7.23;100.00
22283;BME280;11310;51.528;21.204;2023-12-20T08:00:17;99077.53;;;7.24;100.00
22283;BME280;11310;51.528;21.204;2023-12-20T08:02:49;99075.16;;;7.19;100.00
22283;BME280;11310;51.528;21.204;2023-12-20T08:05:19;99079.53;;;7.19;100.00
22283;BME280;11310;51.528;21.204;2023-12-20T08:07:47;99079.69;;;7.16;100.00
22283;BME280;11310;51.528;21.204;2023-12-20T08:10:17;99082.72;;;7.07;100.00
22283;BME280;11310;51.528;21.204;2023-12-20T08:12:46;99090.63;;;7.05;100.00
22283;BME280;11310;51.528;21.204;2023-12-20T08:15:16;99079.31;;;7.05;100.00
22283;BME280;11310;51.528;21.204;2023-12-20T08:17:44;99089.13;;;7.00;100.00
22283;BME280;11310;51.528;21.204;2023-12-20T08:20:13;99089.25;;;6.97;100.00
22283;BME280;11310;51.528;21.204;2023-12-20T08:22:52;99090.81;;;7.01;100.00
22283;BME280;11310;51.528;21.204;2023-12-20T08:25:20;99082.84;;;7.04;100.00
22283;BME280;11310;51.528;21.204;2023-12-20T08:27:49;99096.75;;;7.04;100.00
22283;BME280;11310;51.528;21.204;2023-12-20T08:30:21;99088.19;;;7.01;100.00
22283;BME280;11310;51.528;21.204;2023-12-20T08:32:50;99083.72;;;7.04;100.00
22283;BME280;11310;51.528;21.204;2023-12-20T08:35:19;99089.75;;;7.05;100.00
22283;BME280;11310;51.528;21.204;2023-12-20T08:37:48;99085.34;;;7.07;100.00
22283;BME280;11310;51.528;21.204;2023-12-20T08:40:16;99084.53;;;7.05;100.00
22283;BME280;11310;51.528;21.204;2023-12-20T08:42:44;99085.66;;;6.99;100.00
22283;BME280;11310;51.528;21.204;2023-12-20T08:45:13;99089.19;;;6.98;100.00
22283;BME280;11310;51.528;21.204;2023-12-20T08:47:43;99091.88;;;6.97;100.00
22283;BME280;11310;51.528;21.204;2023-12-20T08:50:15;99086.94;;;6.91;100.00
22283;BME280;11310;51.528;21.204;2023-12-20T08:52:44;99086.94;;;6.91;100.00
22283;BME280;11310;51.528;21.204;2023-12-20T08:55:12;99084.56;;;6.86;100.00
22283;BME280;11310;51.528;21.204;2023-12-20T08:57:43;99084.81;;;6.80;100.00
22283;BME280;11310;51.528;21.204;2023-12-20T09:00:13;99074.56;;;6.77;100.00
22283;BME280;11310;51.528;21.204;2023-12-20T09:02:43;99077.22;;;6.76;100.00
22283;BME280;11310;51.528;21.204;2023-12-20T09:05:11;99078.00;;;6.78;100.00
22283;BME280;11310;51.528;21.204;2023-12-20T09:07:40;99075.38;;;6.78;100.00
22283;BME280;11310;51.528;21.204;2023-12-20T09:10:09;99067.63;;;6.76;100.00
22283;BME280;11310;51.528;21.204;2023-12-20T09:12:37;99066.88;;;6.74;100.00
22283;BME280;11310;51.528;21.204;2023-12-20T09:15:10;99063.34;;;6.75;100.00
22283;BME280;11310;51.528;21.204;2023-12-20T09:17:39;99070.53;;;6.70;100.00
22283;BME280;11310;51.528;21.204;2023-12-20T09:20:10;99058.50;;;6.68;100.00
22283;BME280;11310;51.528;21.204;2023-12-20T09:22:40;99069.69;;;6.70;100.00
22283;BME280;11310;51.528;21.204;2023-12-20T09:25:10;99050.81;;;6.65;100.00
22283;BME280;11310;51.528;21.204;2023-12-20T09:27:40;99064.69;;;6.65;100.00
22283;BME280;11310;51.528;21.204;2023-12-20T09:30:09;99057.84;;;6.63;100.00
22283;BME280;11310;51.528;21.204;2023-12-20T09:32:38;99054.56;;;6.59;100.00
22283;BME280;11310;51.528;21.204;2023-12-20T09:35:07;99055.53;;;6.57;100.00
22283;BME280;11310;51.528;21.204;2023-12-20T09:37:37;99050.16;;;6.60;100.00
22283;BME280;11310;51.528;21.204;2023-12-20T09:40:11;99035.47;;;6.59;100.00
22283;BME280;11310;51.528;21.204;2023-12-20T09:42:48;99044.97;;;6.60;100.00
22283;BME280;11310;51.528;21.204;2023-12-20T09:45:20;99034.53;;;6.60;100.00
22283;BME280;11310;51.528;21.204;2023-12-20T09:47:53;99037.31;;;6.57;100.00
22283;BME280;11310;51.528;21.204;2023-12-20T09:50:21;99043.50;;;6.54;100.00
22283;BME280;11310;51.528;21.204;2023-12-20T09:52:52;99035.69;;;6.54;100.00
22283;BME280;11310;51.528;21.204;2023-12-20T09:55:25;99032.84;;;6.59;100.00
22283;BME280;11310;51.528;21.204;2023-12-20T09:57:53;99039.75;;;6.60;100.00
22283;BME280;11310;51.528;21.204;2023-12-20T10:00:22;99034.59;;;6.58;100.00
22283;BME280;11310;51.528;21.204;2023-12-20T10:02:55;99032.09;;;6.57;100.00
22283;BME280;11310;51.528;21.204;2023-12-20T10:05:27;99031.09;;;6.59;100.00
22283;BME280;11310;51.528;21.204;2023-12-20T10:07:58;99025.81;;;6.61;100.00
22283;BME280;11310;51.528;21.204;2023-12-20T10:10:31;99023.84;;;6.66;100.00
22283;BME280;11310;51.528;21.204;2023-12-20T10:13:12;99016.78;;;6.68;100.00
22283;BME280;11310;51.528;21.204;2023-12-20T10:15:41;99009.59;;;6.73;100.00
22283;BME280;11310;51.528;21.204;2023-12-20T10:18:11;99008.25;;;6.83;100.00
22283;BME280;11310;51.528;21.204;2023-12-20T10:20:41;99008.41;;;6.80;100.00
22283;BME280;11310;51.528;21.204;2023-12-20T10:23:12;99004.81;;;6.82;100.00
22283;BME280;11310;51.528;21.204;2023-12-20T10:25:40;99006.72;;;6.79;100.00
22283;BME280;11310;51.528;21.204;2023-12-20T10:28:10;99016.50;;;6.74;100.00
22283;BME280;11310;51.528;21.204;2023-12-20T10:30:40;99012.91;;;6.76;100.00
22283;BME280;11310;51.528;21.204;2023-12-20T10:33:10;99005.94;;;6.77;100.00
22283;BME280;11310;51.528;21.204;2023-12-20T10:35:40;99003.09;;;6.81;100.00
22283;BME280;11310;51.528;21.204;2023-12-20T10:38:15;99005.66;;;6.83;100.00
22283;BME280;11310;51.528;21.204;2023-12-20T10:40:45;99004.81;;;6.82;100.00
22283;BME280;11310;51.528;21.204;2023-12-20T10:43:14;98996.94;;;6.84;100.00
22283;BME280;11310;51.528;21.204;2023-12-20T10:45:43;99002.78;;;6.89;100.00
22283;BME280;11310;51.528;21.204;2023-12-20T10:48:11;98996.94;;;6.84;100.00
22283;BME280;11310;51.528;21.204;2023-12-20T10:50:41;98989.94;;;6.84;100.00
22283;BME280;11310;51.528;21.204;2023-12-20T10:53:13;98988.94;;;6.87;100.00
22283;BME280;11310;51.528;21.204;2023-12-20T10:55:43;98985.28;;;6.91;100.00
22283;BME280;11310;51.528;21.204;2023-12-20T10:58:13;98991.50;;;6.88;100.00
22283;BME280;11310;51.528;21.204;2023-12-20T11:00:43;98980.31;;;6.86;100.00
22283;BME280;11310;51.528;21.204;2023-12-20T11:03:16;98975.16;;;6.85;100.00
22283;BME280;11310;51.528;21.204;2023-12-20T11:05:50;98988.94;;;6.87;100.00
22283;BME280;11310;51.528;21.204;2023-12-20T11:08:27;98986.50;;;6.84;100.00
22283;BME280;11310;51.528;21.204;2023-12-20T11:11:02;98984.53;;;6.89;100.00
22283;BME280;11310;51.528;21.204;2023-12-20T11:13:35;98981.06;;;6.88;100.00
22283;BME280;11310;51.528;21.204;2023-12-20T11:16:07;98975.28;;;6.82;100.00
22283;BME280;11310;51.528;21.204;2023-12-20T11:18:36;98977.03;;;6.81;100.00
22283;BME280;11310;51.528;21.204;2023-12-20T11:21:05;98971.16;;;6.78;100.00
22283;BME280;11310;51.528;21.204;2023-12-20T11:23:35;98969.31;;;6.80;100.00
22283;BME280;11310;51.528;21.204;2023-12-20T11:26:03;98973.00;;;6.76;100.00
22283;BME280;11310;51.528;21.204;2023-12-20T11:28:32;98962.69;;;6.73;100.00
22283;BME280;11310;51.528;21.204;2023-12-20T11:31:01;98966.09;;;6.75;100.00
22283;BME280;11310;51.528;21.204;2023-12-20T11:33:36;98950.81;;;6.67;100.00
22283;BME280;11310;51.528;21.204;2023-12-20T11:36:13;98954.41;;;6.65;100.00
22283;BME280;11310;51.528;21.204;2023-12-20T11:38:53;98959.41;;;6.69;100.00
22283;BME280;11310;51.528;21.204;2023-12-20T11:41:22;98955.94;;;6.69;100.00
22283;BME280;11310;51.528;21.204;2023-12-20T11:43:53;98945.69;;;6.66;100.00
22283;BME280;11310;51.528;21.204;2023-12-20T11:46:22;98942.28;;;6.64;100.00
22283;BME280;11310;51.528;21.204;2023-12-20T11:48:51;98943.84;;;6.68;100.00
22283;BME280;11310;51.528;21.204;2023-12-20T11:51:20;98941.66;;;6.59;100.00
22283;BME280;11310;51.528;21.204;2023-12-20T11:53:52;98944.84;;;6.65;100.00
22283;BME280;11310;51.528;21.204;2023-12-20T11:56:21;98941.53;;;6.62;100.00
22283;BME280;11310;51.528;21.204;2023-12-20T11:58:50;98937.16;;;6.62;100.00
22283;BME280;11310;51.528;21.204;2023-12-20T12:01:19;98934.72;;;6.59;100.00
22283;BME280;11310;51.528;21.204;2023-12-20T12:03:48;98936.53;;;6.57;100.00
22283;BME280;11310;51.528;21.204;2023-12-20T12:06:18;98928.63;;;6.59;100.00
22283;BME280;11310;51.528;21.204;2023-12-20T12:08:46;98924.97;;;6.63;100.00
22283;BME280;11310;51.528;21.204;2023-12-20T12:11:16;98925.03;;;6.61;100.00
22283;BME280;11310;51.528;21.204;2023-12-20T12:13:44;98919.91;;;6.60;100.00
22283;BME280;11310;51.528;21.204;2023-12-20T12:16:17;98925.91;;;6.62;100.00
22283;BME280;11310;51.528;21.204;2023-12-20T12:18:46;98919.91;;;6.60;100.00
22283;BME280;11310;51.528;21.204;2023-12-20T12:21:28;98926.72;;;6.62;100.00
22283;BME280;11310;51.528;21.204;2023-12-20T12:24:07;98927.50;;;6.64;100.00
22283;BME280;11310;51.528;21.204;2023-12-20T12:26:37;98925.53;;;6.69;100.00
22283;BME280;11310;51.528;21.204;2023-12-20T12:29:07;98922.84;;;6.71;100.00
22283;BME280;11310;51.528;21.204;2023-12-20T12:31:36;98916.38;;;6.61;100.00
22283;BME280;11310;51.528;21.204;2023-12-20T12:34:05;98912.88;;;6.62;100.00
22283;BME280;11310;51.528;21.204;2023-12-20T12:36:36;98915.31;;;6.65;100.00
22283;BME280;11310;51.528;21.204;2023-12-20T12:39:05;98921.31;;;6.67;100.00
22283;BME280;11310;51.528;21.204;2023-12-20T12:41:33;98909.03;;;6.69;100.00
22283;BME280;11310;51.528;21.204;2023-12-20T12:44:03;98912.44;;;6.71;100.00
22283;BME280;11310;51.528;21.204;2023-12-20T12:46:43;98904.56;;;6.72;100.00
22283;BME280;11310;51.528;21.204;2023-12-20T12:49:12;98897.25;;;6.62;100.00
22283;BME280;11310;51.528;21.204;2023-12-20T12:51:40;98902.44;;;6.62;100.00
22283;BME280;11310;51.528;21.204;2023-12-20T12:54:10;98894.63;;;6.62;100.00
22283;BME280;11310;51.528;21.204;2023-12-20T12:56:40;98903.34;;;6.61;100.00
22283;BME280;11310;51.528;21.204;2023-12-20T12:59:09;98907.81;;;6.59;100.00
22283;BME280;11310;51.528;21.204;2023-12-20T13:01:38;98904.56;;;6.54;100.00